createdAt,value
2022-12-18T00:00:28.230Z,99093.88
2022-12-18T00:02:58.078Z,99085.63
2022-12-18T00:05:25.763Z,99087.16
2022-12-18T00:07:55.000Z,99090.81
2022-12-18T00:10:23.246Z,99089.72
2022-12-18T00:12:53.002Z,99089.09
2022-12-18T00:15:21.618Z,99095.16
2022-12-18T00:17:50.450Z,99069.31
2022-12-18T00:20:26.860Z,99093.66
2022-12-18T00:22:55.559Z,99055.06
2022-12-18T00:25:24.742Z,99073.47
2022-12-18T00:27:58.733Z,99097.25
2022-12-18T00:30:27.212Z,99102.13
2022-12-18T00:32:57.189Z,99096.75
2022-12-18T00:35:27.928Z,99091.88
2022-12-18T00:37:55.554Z,99088.75
2022-12-18T00:40:25.797Z,99097.06
2022-12-18T00:42:57.873Z,99098.59
2022-12-18T00:45:31.540Z,99117.31
2022-12-18T00:48:05.252Z,99100.41
2022-12-18T00:50:34.301Z,99088.03
2022-12-18T00:53:02.496Z,99080.78
2022-12-18T00:55:34.804Z,99092.28
2022-12-18T00:58:06.921Z,99074.19
2022-12-18T01:00:45.091Z,99070.34
2022-12-18T01:03:17.958Z,99065.59
2022-12-18T01:05:45.770Z,99069.84
2022-12-18T01:08:13.836Z,99057.06
2022-12-18T01:10:45.192Z,99041.44
2022-12-18T01:13:14.730Z,99064.06
2022-12-18T01:15:52.230Z,99055.66
2022-12-18T01:18:20.841Z,99046.13
2022-12-18T01:20:50.957Z,99048.03
2022-12-18T01:23:19.409Z,99039.00
2022-12-18T01:25:47.346Z,99044.41
2022-12-18T01:28:14.912Z,99026.78
2022-12-18T01:30:46.391Z,99050.75
2022-12-18T01:33:15.824Z,99031.31
2022-12-18T01:35:44.503Z,99025.72
2022-12-18T01:38:13.198Z,99033.59
2022-12-18T01:40:41.969Z,99020.38
2022-12-18T01:43:14.510Z,99019.31
2022-12-18T01:45:46.181Z,99008.34
2022-12-18T01:48:15.261Z,99010.66
2022-12-18T01:50:44.681Z,99006.38
2022-12-18T01:53:16.682Z,99001.28
2022-12-18T01:55:58.113Z,98989.78
2022-12-18T01:58:45.553Z,98997.94
2022-12-18T02:01:18.904Z,99001.31
2022-12-18T02:03:52.924Z,99000.84
2022-12-18T02:06:41.483Z,98990.97
2022-12-18T02:09:22.973Z,98996.38
2022-12-18T02:11:58.903Z,98992.09
2022-12-18T02:14:46.093Z,98993.53
2022-12-18T02:17:36.723Z,98977.78
2022-12-18T02:20:21.844Z,98972.13
2022-12-18T02:23:23.558Z,98972.84
2022-12-18T02:26:21.833Z,98962.22
2022-12-18T02:29:06.432Z,98966.03
2022-12-18T02:31:44.116Z,98957.13
2022-12-18T02:34:14.919Z,98917.31
2022-12-18T02:36:47.905Z,98962.34
2022-12-18T02:39:19.082Z,98961.47
2022-12-18T02:41:59.849Z,98969.56
2022-12-18T02:44:29.933Z,98924.19
2022-12-18T02:46:58.672Z,98959.66
2022-12-18T02:49:55.116Z,98944.06
2022-12-18T02:53:11.513Z,98921.28
2022-12-18T02:56:29.147Z,98959.94
2022-12-18T02:59:14.861Z,98936.81
2022-12-18T03:02:13.997Z,98960.56
2022-12-18T03:04:59.101Z,98964.31
2022-12-18T03:07:52.776Z,98951.19
2022-12-18T03:10:29.152Z,98941.53
2022-12-18T03:13:28.444Z,98952.22
2022-12-18T03:16:00.632Z,98954.25
2022-12-18T03:18:37.156Z,98945.69
2022-12-18T03:21:19.905Z,98925.31
2022-12-18T03:23:54.241Z,98898.56
2022-12-18T03:26:28.532Z,98925.31
2022-12-18T03:29:13.939Z,98922.75
2022-12-18T03:31:44.458Z,98919.22
2022-12-18T03:34:19.165Z,98915.66
2022-12-18T03:36:48.083Z,98914.69
2022-12-18T03:39:16.784Z,98913.41
2022-12-18T03:42:14.926Z,98909.06
2022-12-18T03:45:09.980Z,98915.41
2022-12-18T03:47:45.530Z,98925.06
2022-12-18T03:50:24.333Z,98906.41
2022-12-18T03:53:07.878Z,98892.97
2022-12-18T03:55:37.673Z,98904.00
2022-12-18T03:58:08.757Z,98913.75
2022-12-18T04:00:56.751Z,98905.84
2022-12-18T04:03:26.821Z,98924.66
2022-12-18T04:05:57.214Z,98939.03
2022-12-18T04:08:26.293Z,98933.06
2022-12-18T04:11:03.548Z,98923.09
2022-12-18T04:13:37.911Z,98908.53
2022-12-18T04:16:10.876Z,98918.88
2022-12-18T04:18:42.110Z,98915.50
2022-12-18T04:21:11.872Z,98895.47
2022-12-18T04:23:39.779Z,98899.59
2022-12-18T04:26:08.400Z,98915.09
2022-12-18T04:28:54.091Z,98909.63
2022-12-18T04:31:22.658Z,98910.44
2022-12-18T04:33:50.686Z,98907.56
2022-12-18T04:36:18.543Z,98926.44
2022-12-18T04:38:47.384Z,98922.41
2022-12-18T04:41:17.253Z,98926.47
2022-12-18T04:43:48.030Z,98916.88
2022-12-18T04:46:15.671Z,98927.44
2022-12-18T04:48:43.228Z,98915.50
2022-12-18T04:51:10.727Z,98905.59
2022-12-18T04:53:38.577Z,98886.03
2022-12-18T04:56:11.675Z,98885.94
2022-12-18T04:58:41.076Z,98901.06
2022-12-18T05:01:09.235Z,98900.00
2022-12-18T05:03:38.541Z,98887.41
2022-12-18T05:06:07.505Z,98879.00
2022-12-18T05:08:35.265Z,98877.75
2022-12-18T05:11:12.561Z,98890.72
2022-12-18T05:13:40.585Z,98885.22
2022-12-18T05:16:08.895Z,98870.28
2022-12-18T05:18:36.826Z,98859.97
2022-12-18T05:21:04.692Z,98860.22
2022-12-18T05:23:32.219Z,98840.59
2022-12-18T05:26:02.117Z,98842.13
2022-12-18T05:28:31.258Z,98842.53
2022-12-18T05:31:00.602Z,98838.06
2022-12-18T05:33:31.474Z,98838.31
2022-12-18T05:36:04.227Z,98824.81
2022-12-18T05:38:34.719Z,98843.16
2022-12-18T05:41:02.256Z,98822.94
2022-12-18T05:43:30.162Z,98820.78
2022-12-18T05:45:58.810Z,98817.13
2022-12-18T05:48:26.412Z,98814.38
2022-12-18T05:50:53.963Z,98806.97
2022-12-18T05:53:21.980Z,98800.16
2022-12-18T05:55:49.574Z,98798.56
2022-12-18T05:58:17.659Z,98793.06
2022-12-18T06:00:47.093Z,98794.84
2022-12-18T06:03:15.510Z,98792.41
2022-12-18T06:05:45.536Z,98786.38
2022-12-18T06:08:14.365Z,98784.13
2022-12-18T06:10:42.617Z,98774.63
2022-12-18T06:13:10.309Z,98761.53
2022-12-18T06:15:39.482Z,98758.72
2022-12-18T06:18:07.129Z,98763.50
2022-12-18T06:20:35.013Z,98725.59
2022-12-18T06:23:02.495Z,98744.00
2022-12-18T06:25:30.252Z,98754.63
2022-12-18T06:27:57.788Z,98744.50
2022-12-18T06:30:25.383Z,98753.56
2022-12-18T06:32:56.692Z,98748.66
2022-12-18T06:35:24.740Z,98750.84
2022-12-18T06:37:52.338Z,98748.63
2022-12-18T06:40:20.328Z,98742.72
2022-12-18T06:42:47.970Z,98749.34
2022-12-18T06:45:18.658Z,98751.09
2022-12-18T06:47:46.186Z,98748.75
2022-12-18T06:50:14.638Z,98744.91
2022-12-18T06:52:42.217Z,98733.41
2022-12-18T06:55:12.125Z,98743.78
2022-12-18T06:57:40.503Z,98729.25
2022-12-18T07:00:08.818Z,98742.19
2022-12-18T07:02:36.934Z,98734.75
2022-12-18T07:05:10.253Z,98728.63
2022-12-18T07:07:38.223Z,98716.91
2022-12-18T07:10:06.218Z,98716.06
2022-12-18T07:12:33.965Z,98710.53
2022-12-18T07:15:01.420Z,98702.97
2022-12-18T07:17:31.022Z,98701.09
2022-12-18T07:19:58.568Z,98685.94
2022-12-18T07:22:29.185Z,98669.75
2022-12-18T07:24:56.890Z,98672.00
2022-12-18T07:27:24.854Z,98651.84
2022-12-18T07:29:52.457Z,98640.38
2022-12-18T07:32:20.001Z,98666.44
2022-12-18T07:34:47.567Z,98666.97
2022-12-18T07:37:15.838Z,98646.69
2022-12-18T07:39:43.503Z,98643.75
2022-12-18T07:42:29.253Z,98669.19
2022-12-18T07:44:56.904Z,98658.09
2022-12-18T07:47:24.666Z,98671.06
2022-12-18T07:49:52.319Z,98666.69
2022-12-18T07:52:25.607Z,98667.66
2022-12-18T07:54:53.480Z,98664.25
2022-12-18T07:57:49.067Z,98654.78
2022-12-18T08:00:09.533Z,98649.69
2022-12-18T08:02:40.181Z,98652.13
2022-12-18T08:05:08.004Z,98661.88
2022-12-18T08:07:35.458Z,98658.94
2022-12-18T08:10:03.066Z,98662.19
2022-12-18T08:12:31.735Z,98667.25
2022-12-18T08:14:59.308Z,98651.13
2022-12-18T08:17:26.818Z,98643.00
2022-12-18T08:19:54.417Z,98638.53
2022-12-18T08:22:21.876Z,98639.38
2022-12-18T08:24:49.450Z,98629.59
2022-12-18T08:27:32.479Z,98638.13
2022-12-18T08:30:00.196Z,98632.09
2022-12-18T08:32:28.976Z,98623.38
2022-12-18T08:34:56.603Z,98614.19
2022-12-18T08:37:25.829Z,98618.19
2022-12-18T08:39:53.349Z,98609.75
2022-12-18T08:42:39.141Z,98580.91
2022-12-18T08:45:07.152Z,98573.00
2022-12-18T08:47:34.746Z,98570.09
2022-12-18T08:50:02.466Z,98580.66
2022-12-18T08:52:33.701Z,98576.72
2022-12-18T08:55:01.399Z,98564.81
2022-12-18T08:57:30.746Z,98558.75
2022-12-18T08:59:58.268Z,98568.59
2022-12-18T09:02:26.289Z,98579.94
2022-12-18T09:04:57.369Z,98555.84
2022-12-18T09:07:25.411Z,98545.53
2022-12-18T09:09:53.045Z,98533.91
2022-12-18T09:12:20.876Z,98536.28
2022-12-18T09:14:48.502Z,98547.94
2022-12-18T09:17:16.249Z,98522.00
2022-12-18T09:19:44.543Z,98525.16
2022-12-18T09:22:12.148Z,98527.56
2022-12-18T09:24:39.892Z,98544.47
2022-12-18T09:27:07.550Z,98546.59
2022-12-18T09:29:35.079Z,98542.34
2022-12-18T09:32:02.710Z,98542.59
2022-12-18T09:34:30.268Z,98533.66
2022-12-18T09:36:57.819Z,98534.94
2022-12-18T09:39:25.401Z,98533.03
2022-12-18T09:41:56.239Z,98506.16
2022-12-18T09:44:45.406Z,98503.53
2022-12-18T09:47:32.534Z,98513.63
2022-12-18T09:50:05.361Z,98511.47
2022-12-18T09:52:43.208Z,98509.69
2022-12-18T09:55:38.442Z,98501.56
2022-12-18T09:58:28.081Z,98490.47
2022-12-18T10:00:56.386Z,98477.50
2022-12-18T10:03:24.226Z,98461.00
2022-12-18T10:06:23.053Z,98463.06
2022-12-18T10:09:00.314Z,98458.31
2022-12-18T10:11:48.120Z,98450.81
2022-12-18T10:14:37.063Z,98443.66
2022-12-18T10:17:27.941Z,98450.28
2022-12-18T10:20:06.648Z,98441.56
2022-12-18T10:22:46.189Z,98440.22
2022-12-18T10:25:32.901Z,98453.44
2022-12-18T10:28:12.946Z,98443.72
2022-12-18T10:30:42.140Z,98437.34
2022-12-18T10:33:19.823Z,98441.59
2022-12-18T10:35:49.543Z,98435.03
2022-12-18T10:38:18.459Z,98436.63
2022-12-18T10:41:23.360Z,98433.25
2022-12-18T10:44:13.310Z,98438.75
2022-12-18T10:46:41.064Z,98420.81
2022-12-18T10:49:22.635Z,98418.25
2022-12-18T10:51:50.869Z,98413.97
2022-12-18T10:54:24.435Z,98403.16
2022-12-18T10:56:52.082Z,98403.41
2022-12-18T10:59:20.346Z,98389.66
2022-12-18T11:01:56.892Z,98389.16
2022-12-18T11:04:27.019Z,98384.69
2022-12-18T11:06:58.054Z,98383.88
2022-12-18T11:09:32.924Z,98381.00
2022-12-18T11:12:03.875Z,98392.09
2022-12-18T11:14:47.198Z,98370.97
2022-12-18T11:17:36.037Z,98367.59
2022-12-18T11:20:08.292Z,98357.81
2022-12-18T11:22:37.678Z,98343.53
2022-12-18T11:25:35.925Z,98351.78
2022-12-18T11:28:49.101Z,98332.28
2022-12-18T11:31:29.526Z,98322.78
2022-12-18T11:34:29.733Z,98321.19
2022-12-18T11:37:01.012Z,98280.22
2022-12-18T11:39:43.533Z,98310.91
2022-12-18T11:42:15.794Z,98303.75
2022-12-18T11:44:59.645Z,98300.34
2022-12-18T11:47:42.082Z,98282.63
2022-12-18T11:50:19.903Z,98290.03
2022-12-18T11:52:50.406Z,98279.47
2022-12-18T11:55:47.795Z,98263.63
2022-12-18T11:58:33.871Z,98252.31
2022-12-18T12:01:04.293Z,98243.84
2022-12-18T12:03:41.233Z,98246.72
2022-12-18T12:06:21.391Z,98245.41
2022-12-18T12:08:57.736Z,98227.97
2022-12-18T12:11:38.663Z,98216.63
2022-12-18T12:14:30.793Z,98220.06
2022-12-18T12:17:13.845Z,98213.22
2022-12-18T12:20:15.115Z,98210.06
2022-12-18T12:23:16.578Z,98196.34
2022-12-18T12:26:13.858Z,98196.59
2022-12-18T12:28:53.408Z,98185.22
2022-12-18T12:31:39.124Z,98193.72
2022-12-18T12:34:33.456Z,98187.88
2022-12-18T12:37:30.661Z,98178.94
2022-12-18T12:39:58.192Z,98164.13
2022-12-18T12:43:01.186Z,98155.94
2022-12-18T12:45:42.508Z,98148.03
2022-12-18T12:48:33.248Z,98137.19
2022-12-18T12:51:08.492Z,98129.03
2022-12-18T12:53:39.221Z,98117.94
2022-12-18T12:56:10.022Z,98107.63
2022-12-18T12:58:40.287Z,98102.91
2022-12-18T13:01:23.602Z,98084.66
2022-12-18T13:03:55.794Z,98084.91
2022-12-18T13:06:44.867Z,98078.03
2022-12-18T13:09:13.997Z,98092.03
2022-12-18T13:12:06.971Z,98086.75
2022-12-18T13:14:35.797Z,98059.28
2022-12-18T13:17:21.743Z,98059.59
2022-12-18T13:20:04.548Z,98055.63
2022-12-18T13:22:41.023Z,98032.63
2022-12-18T13:25:35.081Z,98035.00
2022-12-18T13:28:16.591Z,98025.75
2022-12-18T13:30:47.549Z,98028.09
2022-12-18T13:33:15.075Z,98014.09
2022-12-18T13:36:02.875Z,98021.47
2022-12-18T13:38:33.692Z,98013.00
2022-12-18T13:41:23.756Z,98014.06
2022-12-18T13:43:59.302Z,98017.47
2022-12-18T13:46:46.987Z,97992.84
2022-12-18T13:49:14.485Z,97991.59
2022-12-18T13:51:45.593Z,97996.88
2022-12-18T13:54:30.287Z,97984.44
2022-12-18T13:56:57.928Z,97970.50
2022-12-18T13:59:36.264Z,97965.66
2022-12-18T14:02:15.757Z,97963.78
2022-12-18T14:04:47.300Z,97942.72
2022-12-18T14:07:20.448Z,97958.00
2022-12-18T14:09:52.297Z,97928.88
2022-12-18T14:12:48.188Z,97923.94
2022-12-18T14:15:37.933Z,97926.78
2022-12-18T14:18:29.717Z,97904.91
2022-12-18T14:21:00.253Z,97896.19
2022-12-18T14:23:30.330Z,97898.00
2022-12-18T14:26:03.612Z,97881.38
2022-12-18T14:28:33.467Z,97884.00
2022-12-18T14:31:01.040Z,97875.03
2022-12-18T14:33:29.425Z,97868.16
2022-12-18T14:36:05.853Z,97849.94
2022-12-18T14:38:37.525Z,97839.63
2022-12-18T14:41:08.230Z,97827.78
2022-12-18T14:43:38.161Z,97799.06
2022-12-18T14:46:45.977Z,97807.59
2022-12-18T14:49:34.181Z,97782.28
2022-12-18T14:52:04.908Z,97798.16
2022-12-18T14:54:33.865Z,97786.03
2022-12-18T14:57:05.250Z,97775.22
2022-12-18T14:59:33.767Z,97764.38
2022-12-18T15:02:23.311Z,97748.78
2022-12-18T15:05:12.706Z,97745.56
2022-12-18T15:07:45.872Z,97731.06
2022-12-18T15:10:21.498Z,97726.69
2022-12-18T15:12:50.593Z,97730.97
2022-12-18T15:15:40.861Z,97721.66
2022-12-18T15:18:13.571Z,97731.66
2022-12-18T15:20:42.702Z,97720.53
2022-12-18T15:23:34.034Z,97712.59
2022-12-18T15:26:09.949Z,97699.84
2022-12-18T15:28:47.049Z,97704.09
2022-12-18T15:31:14.597Z,97668.41
2022-12-18T15:33:51.638Z,97669.66
2022-12-18T15:36:21.365Z,97679.44
2022-12-18T15:39:02.142Z,97673.13
2022-12-18T15:41:37.992Z,97667.50
2022-12-18T15:44:24.681Z,97662.38
2022-12-18T15:46:52.678Z,97653.09
2022-12-18T15:49:20.320Z,97650.69
2022-12-18T15:52:00.545Z,97630.81
2022-12-18T15:54:48.030Z,97637.19
2022-12-18T15:57:27.160Z,97611.75
2022-12-18T16:00:01.850Z,97620.16
2022-12-18T16:02:50.934Z,97610.59
2022-12-18T16:05:27.147Z,97598.59
2022-12-18T16:07:56.070Z,97581.22
2022-12-18T16:10:30.095Z,97574.44
2022-12-18T16:12:58.490Z,97542.47
2022-12-18T16:15:40.559Z,97587.81
2022-12-18T16:18:09.906Z,97580.94
2022-12-18T16:20:38.980Z,97565.13
2022-12-18T16:23:09.099Z,97567.13
2022-12-18T16:25:39.032Z,97557.91
2022-12-18T16:28:10.368Z,97560.88
2022-12-18T16:30:39.122Z,97519.84
2022-12-18T16:33:15.082Z,97548.06
2022-12-18T16:35:44.771Z,97527.66
2022-12-18T16:38:26.607Z,97531.50
2022-12-18T16:41:15.118Z,97532.59
2022-12-18T16:43:44.125Z,97527.69
2022-12-18T16:46:14.966Z,97540.28
2022-12-18T16:48:45.974Z,97528.00
2022-12-18T16:51:14.039Z,97513.66
2022-12-18T16:53:53.627Z,97525.50
2022-12-18T16:56:28.739Z,97497.63
2022-12-18T16:59:04.094Z,97490.47
2022-12-18T17:01:34.737Z,97478.00
2022-12-18T17:04:06.800Z,97487.47
2022-12-18T17:06:41.960Z,97497.69
2022-12-18T17:09:24.523Z,97509.81
2022-12-18T17:11:54.678Z,97491.88
2022-12-18T17:14:26.077Z,97491.50
2022-12-18T17:17:20.919Z,97484.31
2022-12-18T17:19:50.459Z,97460.50
2022-12-18T17:22:30.040Z,97489.41
2022-12-18T17:24:57.907Z,97484.25
2022-12-18T17:27:28.646Z,97478.06
2022-12-18T17:29:59.147Z,97462.94
2022-12-18T17:32:31.596Z,97437.03
2022-12-18T17:35:03.932Z,97448.59
2022-12-18T17:37:36.304Z,97466.66
2022-12-18T17:40:04.513Z,97460.84
2022-12-18T17:42:32.464Z,97456.91
2022-12-18T17:45:00.127Z,97447.66
2022-12-18T17:47:28.322Z,97438.53
2022-12-18T17:49:56.004Z,97446.75
2022-12-18T17:52:27.162Z,97424.63
2022-12-18T17:54:57.424Z,97435.84
2022-12-18T17:57:27.870Z,97436.31
2022-12-18T17:59:59.393Z,97433.56
2022-12-18T18:02:31.148Z,97432.75
2022-12-18T18:05:00.925Z,97423.44
2022-12-18T18:07:46.103Z,97433.22
2022-12-18T18:10:18.254Z,97429.94
2022-12-18T18:13:08.677Z,97421.38
2022-12-18T18:15:36.379Z,97421.56
2022-12-18T18:18:05.692Z,97421.28
2022-12-18T18:20:33.367Z,97418.00
2022-12-18T18:23:03.772Z,97415.72
2022-12-18T18:25:36.594Z,97411.97
2022-12-18T18:28:08.414Z,97400.59
2022-12-18T18:30:37.661Z,97407.00
2022-12-18T18:33:11.814Z,97414.91
2022-12-18T18:35:54.214Z,97399.16
2022-12-18T18:38:30.571Z,97405.13
2022-12-18T18:41:05.123Z,97398.88
2022-12-18T18:46:53.171Z,97384.03
2022-12-18T18:49:27.904Z,97367.16
2022-12-18T18:51:57.674Z,97378.31
2022-12-18T18:54:27.586Z,97379.56
2022-12-18T18:59:48.603Z,97377.75
2022-12-18T19:02:19.617Z,97373.97
2022-12-18T19:04:49.495Z,97376.38
2022-12-18T19:07:29.501Z,97356.81
2022-12-18T19:10:04.645Z,97364.81
2022-12-18T19:12:55.099Z,97361.69
2022-12-18T19:15:42.339Z,97337.28
2022-12-18T19:18:10.109Z,97357.03
2022-12-18T19:20:38.454Z,97363.75
2022-12-18T19:23:06.156Z,97347.78
2022-12-18T19:25:41.828Z,97362.03
2022-12-18T19:28:17.377Z,97343.28
2022-12-18T19:30:50.332Z,97335.47
2022-12-18T19:33:41.585Z,97343.28
2022-12-18T19:36:21.272Z,97330.44
2022-12-18T19:38:51.498Z,97318.72
2022-12-18T19:41:21.522Z,97336.69
2022-12-18T19:43:52.594Z,97337.31
2022-12-18T19:46:24.084Z,97336.50
2022-12-18T19:48:53.733Z,97324.75
2022-12-18T19:51:27.017Z,97332.41
2022-12-18T19:53:58.789Z,97315.50
2022-12-18T19:56:29.647Z,97309.38
2022-12-18T19:58:58.132Z,97330.63
2022-12-18T20:01:36.549Z,97311.97
2022-12-18T20:04:08.571Z,97321.81
2022-12-18T20:06:50.839Z,97304.53
2022-12-18T20:09:19.794Z,97304.72
2022-12-18T20:11:49.430Z,97309.09
2022-12-18T20:14:23.343Z,97312.81
2022-12-18T20:16:58.279Z,97306.84
2022-12-18T20:19:37.775Z,97292.19
2022-12-18T20:22:17.086Z,97320.03
2022-12-18T20:24:53.427Z,97311.75
2022-12-18T20:27:24.809Z,97310.94
2022-12-18T20:29:52.590Z,97308.53
2022-12-18T20:32:20.666Z,97287.63
2022-12-18T20:34:48.534Z,97304.59
2022-12-18T20:37:16.306Z,97292.50
2022-12-18T20:39:44.438Z,97297.00
2022-12-18T20:42:12.928Z,97305.47
2022-12-18T20:44:41.703Z,97296.94
2022-12-18T20:47:11.271Z,97314.75
2022-12-18T20:49:42.057Z,97288.53
2022-12-18T20:52:13.481Z,97277.53
2022-12-18T20:54:49.990Z,97297.50
2022-12-18T20:57:20.552Z,97291.19
2022-12-18T20:59:52.165Z,97294.63
2022-12-18T21:02:22.136Z,97280.38
2022-12-18T21:04:54.932Z,97287.53
2022-12-18T21:07:24.117Z,97275.84
2022-12-18T21:09:55.251Z,97285.19
2022-12-18T21:12:44.930Z,97283.59
2022-12-18T21:15:43.919Z,97297.50
2022-12-18T21:18:14.526Z,97291.66
2022-12-18T21:20:42.769Z,97292.63
2022-12-18T21:23:16.506Z,97291.91
2022-12-18T21:25:46.665Z,97279.28
2022-12-18T21:28:17.313Z,97298.25
2022-12-18T21:30:45.313Z,97299.94
2022-12-18T21:33:13.041Z,97290.06
2022-12-18T21:35:40.588Z,97297.22
2022-12-18T21:38:08.578Z,97290.88
2022-12-18T21:40:36.410Z,97299.47
2022-12-18T21:43:23.274Z,97283.25
2022-12-18T21:45:50.761Z,97286.50
2022-12-18T21:48:18.358Z,97287.41
2022-12-18T21:50:46.055Z,97288.72
2022-12-18T21:53:13.857Z,97276.72
2022-12-18T21:55:41.427Z,97285.31
2022-12-18T21:58:08.929Z,97285.63
2022-12-18T22:00:36.505Z,97280.06
2022-12-18T22:03:18.216Z,97283.19
2022-12-18T22:06:08.972Z,97266.38
2022-12-18T22:08:44.021Z,97257.75
2022-12-18T22:11:17.429Z,97262.50
2022-12-18T22:13:49.670Z,97227.47
2022-12-18T22:16:21.425Z,97239.06
2022-12-18T22:18:52.065Z,97233.47
2022-12-18T22:21:29.621Z,97232.38
2022-12-18T22:24:01.870Z,97256.97
2022-12-18T22:26:44.130Z,97253.63
2022-12-18T22:29:39.421Z,97245.09
2022-12-18T22:32:11.537Z,97264.66
2022-12-18T22:34:48.899Z,97251.44
2022-12-18T22:37:17.792Z,97236.84
2022-12-18T22:39:45.639Z,97257.22
2022-12-18T22:42:19.784Z,97252.53
2022-12-18T22:44:48.797Z,97252.75
2022-12-18T22:47:29.191Z,97242.84
2022-12-18T22:50:01.361Z,97258.53
2022-12-18T22:52:37.596Z,97271.78
2022-12-18T22:55:08.467Z,97262.34
2022-12-18T22:57:38.027Z,97273.47
2022-12-18T23:00:13.543Z,97274.00
2022-12-18T23:02:45.872Z,97280.47
2022-12-18T23:08:04.293Z,97260.31
2022-12-18T23:10:37.312Z,97262.97
2022-12-18T23:13:12.356Z,97256.41
2022-12-18T23:15:44.339Z,97257.84
2022-12-18T23:18:28.065Z,97242.91
2022-12-18T23:20:56.838Z,97248.81
2022-12-18T23:23:29.226Z,97223.25
2022-12-18T23:26:06.754Z,97220.34
2022-12-18T23:28:43.594Z,97212.94
2022-12-18T23:31:40.040Z,97211.22
2022-12-18T23:34:25.639Z,97194.69
2022-12-18T23:36:59.478Z,97208.31
2022-12-18T23:39:37.408Z,97191.72
2022-12-18T23:42:16.581Z,97183.50
2022-12-18T23:44:48.699Z,97206.22
2022-12-18T23:47:23.935Z,97191.31
2022-12-18T23:49:52.212Z,97205.22
2022-12-18T23:52:37.908Z,97186.03
2022-12-18T23:58:26.603Z,97204.94
